Stations météo

Publicité
Embrun, France (7591): Température de l'air & dewpoint: 20.03.2017 09:00:00 - 26.03.2017 09:00:00 (CEST)Embrun, France (7591): Température de l'air 5cm: 20.03.2017 09:00:00 - 26.03.2017 09:00:00 (CEST)Embrun, France (7591): Température de l'air -20cm & Température de l'air -100cm: 20.03.2017 09:00:00 - 26.03.2017 09:00:00 (CEST)Embrun, France (7591): Vitesse du vent & gusts: 20.03.2017 09:00:00 - 26.03.2017 09:00:00 (CEST)Embrun, France (7591): Direction du vent: 20.03.2017 09:00:00 - 26.03.2017 09:00:00 (CEST)Embrun, France (7591): visibility: 20.03.2017 09:00:00 - 26.03.2017 09:00:00 (CEST)Embrun, France (7591): Ensoleillement: 20.03.2017 09:00:00 - 26.03.2017 09:00:00 (CEST)Embrun, France (7591): Quantités de précipitations: 20.03.2017 09:00:00 - 26.03.2017 09:00:00 (CEST)
Date & Time tt [°C] td [°C] tt 5cm [°C] tt -20cm [°C] tt -100cm [°C] ff [km/h] ff [knt] fx [km/h] fx [knt] dd vv [km] sd [min] rr [mm]
26.03.2017 09:00:00 3,1 1,8 0,2 8,7 8,8 6 3 17 9 NE 20 26 0,0
26.03.2017 08:00:00 1,2 0,5 0,0 8,8 8,8 12 6 18 10 NNE 20 0 0,0
26.03.2017 07:00:00 0,8 0,1 -0,7 8,8 8,8 3 2 6 3 ENE 3,3 0 0,0
26.03.2017 06:00:00 0,9 0,2 -0,9 8,9 8,8 2 1 6 3 NW 7 0 0,0
26.03.2017 05:00:00 1,1 0,4 -0,4 9,0 8,8 3 2 12 6 ENE 5 0 0,0
26.03.2017 04:00:00 1,4 0,7 0,9 9,0 8,8 5 3 9 5 NE 14 0 0,0
26.03.2017 03:00:00 1,3 0,6 0,9 9,1 8,8 4 2 12 7 NE 16 0 0,0
26.03.2017 02:00:00 1,1 0,4 0,6 9,2 8,8 5 3 13 7 NE 14 0 0,2
26.03.2017 01:00:00 0,9 -0,1 0,5 9,2 8,8 4 2 10 5 NE 6 0 0,6
26.03.2017 00:00:00 1,4 0,5 0,7 9,4 8,8 2 1 10 5 WSW 11 0 1,0
25.03.2017 23:00:00 1,2 0,5 0,1 9,4 8,8 3 1 7 4 S 8 0 0,4
25.03.2017 22:00:00 1,0 0,0 0,0 9,4 8,8 2 1 4 2 S 19 0 1,6
25.03.2017 21:00:00 1,3 0,0 0,2 9,4 8,8 0 0 9 5 N 13 0 2,4
25.03.2017 20:00:00 2,1 0,6 1,4 9,5 8,8 5 3 11 6 W 12 0 2,2
25.03.2017 19:00:00 2,5 1,3 2,1 9,5 8,8 6 3 16 8 SW 12 0 2,1
25.03.2017 18:00:00 2,9 1,3 2,5 9,5 8,8 6 4 34 19 SSW 20 0 1,2
25.03.2017 17:00:00 3,5 1,9 3,3 9,4 8,8 18 10 51 28 SSW 9 0 2,8
25.03.2017 16:00:00 7,0 3,2 5,7 9,4 8,8 28 15 58 31 SW 10 0 0,2
25.03.2017 15:00:00 14,1 0,0 14,2 9,4 8,8 19 11 63 34 NNE 20 0 0,0
25.03.2017 14:00:00 14,4 -0,1 14,6 9,4 8,8 37 20 64 35 N 20 3 0,0
25.03.2017 13:00:00 14,2 0,8 13,9 9,4 8,7 37 20 61 33 N 20 3 0,0
25.03.2017 12:00:00 12,8 2,3 13,0 9,4 8,8 32 18 75 40 NNE 20 4 0,0
25.03.2017 11:00:00 12,9 2,7 13,5 9,5 8,7 44 24 67 36 N 20 48 0,0
25.03.2017 10:00:00 11,8 3,0 11,0 9,5 8,7 37 20 58 31 N 20 25 0,0
25.03.2017 09:00:00 11,6 2,3 10,0 9,5 8,7 36 19 64 35 N 20 10 0,0
25.03.2017 08:00:00 11,0 2,0 8,7 9,5 8,7 34 18 58 31 N 20 0 0,0
25.03.2017 07:00:00 10,0 1,9 8,5 9,5 8,7 34 18 55 30 N 20 0 0,0
25.03.2017 06:00:00 11,5 1,1 9,6 9,6 8,7 36 19 61 33 N 20 0 0,0
25.03.2017 05:00:00 11,2 1,4 9,6 9,6 8,7 37 20 61 33 N 20 0 0,0
25.03.2017 04:00:00 11,4 1,3 10,3 9,6 8,7 37 20 62 33 N 20 0 0,0
25.03.2017 03:00:00 11,5 1,4 9,9 9,7 8,7 36 20 55 30 N 20 0 0,0
25.03.2017 02:00:00 11,3 1,2 10,0 9,7 8,7 31 17 50 27 N 20 0 0,0
25.03.2017 01:00:00 11,3 1,2 10,4 9,7 8,7 28 15 56 31 N 20 0 0,0
25.03.2017 00:00:00 11,6 1,5 9,9 9,7 8,7 29 16 45 24 N 20 0 0,0
24.03.2017 23:00:00 11,3 1,8 9,7 9,7 8,7 26 14 53 29 N 20 0 0,0
24.03.2017 22:00:00 10,6 2,7 9,8 9,7 8,7 34 18 56 30 N 20 0 0,0
24.03.2017 21:00:00 10,9 2,7 9,8 9,8 8,7 34 19 59 32 N 20 0 0,0
24.03.2017 20:00:00 10,5 2,8 9,8 9,8 8,7 38 20 59 32 N 20 0 0,0
24.03.2017 19:00:00 10,7 3,0 10,5 9,8 8,7 37 20 59 32 N 20 0 0,0
24.03.2017 18:00:00 10,6 3,1 10,4 9,7 8,7 35 19 59 32 N 20 0 0,0
24.03.2017 17:00:00 10,4 3,0 10,7 9,8 8,7 37 20 56 30 N 20 0 0,0
24.03.2017 16:00:00 10,6 3,6 10,7 9,8 8,7 34 18 63 34 N 20 0 0,0
24.03.2017 15:00:00 11,0 2,6 11,2 9,8 8,7 36 19 53 28 NNE 20 0 0,0
24.03.2017 14:00:00 11,8 1,7 12,4 9,9 8,7 23 12 54 29 NNE 20 0 0,0
24.03.2017 13:00:00 12,2 0,9 11,0 9,9 8,7 32 18 56 31 NNE 20 0 0,0
24.03.2017 12:00:00 11,1 1,6 10,4 9,9 8,6 32 17 62 33 N 20 0 0,0
24.03.2017 11:00:00 10,2 1,8 9,2 10,0 8,6 34 18 55 30 N 20 0 0,0
24.03.2017 10:00:00 9,1 2,2 8,8 10,0 8,6 31 17 52 28 N 20 0 0,0
24.03.2017 09:00:00 9,2 1,6 7,9 10,1 8,6 31 17 56 30 N 20 0 0,0
24.03.2017 08:00:00 8,4 1,8 7,9 10,1 8,6 24 13 58 31 N 20 0 0,0
24.03.2017 07:00:00 8,5 1,9 7,6 10,1 8,6 36 19 59 32 N 20 0 0,0
24.03.2017 06:00:00 9,0 1,2 7,0 10,1 8,6 21 11 43 23 NNE 20 0 0,0
24.03.2017 05:00:00 7,9 1,5 6,1 10,2 8,6 11 6 27 14 NE 20 0 0,0
24.03.2017 04:00:00 8,0 1,4 6,7 10,2 8,6 19 11 53 29 NNE 20 0 0,0
24.03.2017 03:00:00 8,5 2,1 7,9 10,3 8,6 24 13 57 31 N 20 0 0,0
24.03.2017 02:00:00 9,1 0,3 8,4 10,3 8,6 21 11 52 28 N 20 0 0,0
24.03.2017 01:00:00 9,3 0,5 6,8 10,3 8,6 14 8 30 16 NNE 20 0 0,0
24.03.2017 00:00:00 8,0 3,5 6,4 10,3 8,6 5 3 14 7 NE 20 0 0,0
23.03.2017 23:00:00 8,0 3,6 6,7 10,3 8,6 4 2 16 9 ENE 20 0 0,0
23.03.2017 22:00:00 8,3 3,9 6,9 10,3 8,6 3 2 22 12 SE 20 0 0,0
23.03.2017 21:00:00 8,2 4,4 6,9 10,2 8,6 14 8 23 13 NE 20 0 0,0
23.03.2017 20:00:00 9,5 3,5 6,9 10,2 8,5 2 1 9 5 NE 20 0 0,0
23.03.2017 19:00:00 10,1 2,9 9,4 10,1 8,5 4 2 31 17 ENE 20 14 0,0
23.03.2017 18:00:00 10,9 3,2 10,0 10,0 8,5 21 11 36 20 N 20 40 0,0
23.03.2017 17:00:00 9,7 3,0 6,8 10,0 8,5 10 6 70 38 NE 20 5 0,2
23.03.2017 16:00:00 12,4 1,1 12,8 9,9 8,5 23 12 43 23 ESE 20 2 0,0
23.03.2017 15:00:00 15,0 1,5 12,7 9,9 8,5 12 6 31 17 SW 20 13 0,0
23.03.2017 14:00:00 16,0 0,9 16,6 9,9 8,5 9 5 23 12 S 20 26 0,0
23.03.2017 13:00:00 14,4 2,0 15,4 9,9 8,5 11 6 19 10 E 20 22 0,0
23.03.2017 12:00:00 12,0 2,4 16,8 10,0 8,5 7 4 16 8 ENE 20 32 0,0
23.03.2017 11:00:00 9,9 4,1 9,9 10,0 8,5 7 4 13 7 ENE 20 5 0,0
23.03.2017 10:00:00 7,8 4,2 7,7 10,0 8,4 4 2 11 6 E 20 0 0,0
23.03.2017 09:00:00 6,6 4,1 5,9 10,1 8,4 0 0 6 4 N 20 0 0,0
23.03.2017 08:00:00 6,2 3,4 5,1 10,1 8,5 3 2 10 5 S 20 0 0,0
23.03.2017 07:00:00 6,5 3,1 5,4 10,2 8,4 5 3 10 5 S 20 0 0,0
23.03.2017 06:00:00 6,8 2,7 5,3 10,2 8,4 6 3 13 7 NE 20 0 0,0
23.03.2017 05:00:00 7,0 3,1 5,4 10,3 8,4 5 3 14 7 NNW 20 0 0,0
23.03.2017 04:00:00 7,7 2,4 6,1 10,3 8,4 6 4 22 12 NW 20 0 0,0
23.03.2017 03:00:00 7,4 3,3 6,9 10,4 8,4 10 5 24 13 SSW 20 0 0,0
23.03.2017 02:00:00 7,5 2,8 6,8 10,3 8,4 16 9 26 14 SSW 20 0 0,0
23.03.2017 01:00:00 8,8 2,1 6,7 10,4 8,4 7 4 26 14 SW 20 0 0,0
23.03.2017 00:00:00 9,0 2,8 8,4 10,4 8,4 18 10 33 18 S 20 0 0,0
22.03.2017 23:00:00 10,1 1,5 9,1 10,4 8,4 16 8 35 19 SSW 20 0 0,0
22.03.2017 22:00:00 10,2 1,6 9,5 10,4 8,4 11 6 27 15 S 20 0 0,0
22.03.2017 21:00:00 11,0 0,7 10,3 10,4 8,3 10 6 39 21 SW 20 0 0,0
22.03.2017 20:00:00 11,5 0,9 10,9 10,4 8,4 20 11 41 22 W 20 0 0,0
22.03.2017 19:00:00 12,0 1,3 11,6 10,3 8,3 22 12 51 28 W 20 0 0,0
22.03.2017 18:00:00 12,6 1,0 12,3 10,3 8,3 22 12 41 22 W 20 0 0,0
22.03.2017 17:00:00 13,4 0,4 13,3 10,3 8,3 17 9 32 18 WSW 20 0 0,0
22.03.2017 16:00:00 13,7 0,7 14,0 10,2 8,3 16 9 38 20 WSW 20 0 0,0
22.03.2017 15:00:00 14,0 0,9 15,0 10,1 8,3 15 8 34 19 W 19 0 0,0
22.03.2017 14:00:00 14,2 1,1 16,1 10,1 8,3 11 6 32 17 SW 20 11 0,0
22.03.2017 13:00:00 14,1 2,0 17,4 10,1 8,3 15 8 34 18 SSW 20 52 0,0
22.03.2017 12:00:00 13,9 3,9 19,9 10,2 8,3 15 8 26 14 S 20 60 0,0
22.03.2017 11:00:00 12,1 5,0 12,3 10,2 8,2 5 3 14 8 S 20 32 0,0
22.03.2017 10:00:00 9,7 4,7 11,2 10,2 8,2 6 3 10 6 S 20 20 0,0
22.03.2017 09:00:00 8,6 4,8 7,4 10,3 8,2 2 1 9 5 SE 20 3 0,0
22.03.2017 08:00:00 8,3 4,1 6,4 10,3 8,2 6 3 12 6 WSW 20 0 0,0
22.03.2017 07:00:00 8,3 4,3 7,3 10,3 8,2 6 3 12 6 SSW 20 0 0,0
22.03.2017 06:00:00 8,6 4,6 7,1 10,4 8,2 8 4 12 6 SSW 20 0 0,0
22.03.2017 05:00:00 8,7 3,9 7,8 10,4 8,2 3 2 7 4 S 20 0 0,0
22.03.2017 04:00:00 9,6 4,0 7,8 10,4 8,2 4 2 11 6 W 20 0 0,0
22.03.2017 03:00:00 9,6 4,0 8,8 10,5 8,2 5 3 18 10 S 20 0 0,0
22.03.2017 02:00:00 10,1 4,5 9,6 10,5 8,2 10 5 21 12 SSW 20 0 0,0
22.03.2017 01:00:00 10,1 4,2 9,0 10,5 8,1 8 5 15 8 S 20 0 0,0
22.03.2017 00:00:00 10,4 4,1 9,2 10,5 8,2 9 5 15 8 S 20 0 0,0
21.03.2017 23:00:00 10,9 4,1 10,0 10,4 8,2 9 5 16 9 SSW 20 0 0,0
21.03.2017 22:00:00 11,9 4,4 10,6 10,4 8,1 10 5 19 11 SSW 20 0 0,0
21.03.2017 21:00:00 12,8 4,5 11,9 10,3 8,1 13 7 24 13 SSW 20 0 0,0
21.03.2017 20:00:00 13,7 4,0 12,7 10,3 8,1 9 5 23 13 SSW 20 0 0,0
21.03.2017 19:00:00 14,9 3,7 14,5 10,1 8,1 13 7 31 17 SW 20 0 0,0
21.03.2017 18:00:00 15,7 2,5 16,0 10,1 8,1 16 9 36 20 SW 20 40 0,0
21.03.2017 17:00:00 16,6 2,9 19,0 9,9 8,1 19 10 39 21 SW 20 60 0,0
21.03.2017 16:00:00 17,5 4,8 22,7 9,8 8,1 22 12 42 23 SW 20 60 0,0
21.03.2017 15:00:00 17,4 5,7 23,0 9,8 8,1 20 11 36 20 SSW 20 60 0,0
21.03.2017 14:00:00 17,2 5,8 22,4 9,8 8,1 23 12 36 20 SSW 20 60 0,0
21.03.2017 13:00:00 15,8 6,8 22,9 9,8 8,1 16 9 28 15 SSW 20 60 0,0
21.03.2017 12:00:00 13,7 5,8 20,6 9,8 8,1 9 5 16 9 S 20 60 0,0
21.03.2017 11:00:00 12,0 6,1 16,4 9,9 8,1 9 5 16 8 SW 20 60 0,0
21.03.2017 10:00:00 9,6 6,3 9,2 9,9 8,1 4 2 8 5 S 19 44 0,0
21.03.2017 09:00:00 7,6 5,7 5,3 9,9 8,0 3 1 6 3 ENE 16 11 0,0
21.03.2017 08:00:00 6,1 5,1 2,0 10,0 8,0 2 1 7 4 NE 15 0 0,0
21.03.2017 07:00:00 6,0 4,8 2,9 10,0 8,0 2 1 9 5 WNW 17 0 0,0
21.03.2017 06:00:00 6,7 5,0 3,1 10,1 8,0 6 3 10 6 SSW 20 0 0,0
21.03.2017 05:00:00 7,3 4,9 3,4 10,1 8,0 3 2 5 3 N 20 0 0,0
21.03.2017 04:00:00 8,1 5,6 4,2 10,1 8,0 3 1 8 4 N 20 0 0,0
21.03.2017 03:00:00 9,8 6,5 6,9 10,1 8,0 5 3 8 5 SSW 20 0 0,0
21.03.2017 02:00:00 11,3 6,8 10,2 10,0 8,0 4 2 9 5 SSW 20 0 0,0
21.03.2017 01:00:00 12,1 7,0 11,5 10,0 8,0 5 3 11 6 S 20 0 0,0
21.03.2017 00:00:00 12,6 7,1 11,7 10,0 8,0 6 4 18 10 SW 20 0 0,0
20.03.2017 23:00:00 13,3 7,3 12,6 10,0 8,0 10 5 16 8 SSW 20 0 0,0
20.03.2017 22:00:00 13,9 7,4 12,9 9,9 8,0 7 4 22 12 S 20 0 0,0
20.03.2017 21:00:00 15,0 7,5 14,0 9,8 8,0 14 8 27 15 SSW 20 0 0,0
20.03.2017 20:00:00 16,5 6,9 15,3 9,6 7,9 12 7 29 15 SSW 20 12 0,0
20.03.2017 19:00:00 19,3 5,4 18,3 9,5 8,0 12 7 31 17 SW 20 36 0,0
20.03.2017 18:00:00 20,8 3,0 22,6 9,4 7,9 14 8 33 18 SW 20 60 0,0
20.03.2017 17:00:00 21,3 2,5 21,6 9,3 7,9 16 9 31 17 SW 20 58 0,0
20.03.2017 16:00:00 21,7 2,4 26,7 9,2 7,9 15 8 31 17 SW 20 60 0,0
20.03.2017 15:00:00 20,7 3,0 26,7 9,1 7,9 17 9 35 19 SSW 20 60 0,0
20.03.2017 14:00:00 19,1 5,2 26,1 9,1 7,9 13 7 27 15 SSW 20 60 0,0
20.03.2017 13:00:00 16,6 4,6 24,1 9,1 7,9 6 3 16 8 SSW 20 60 0,0
20.03.2017 12:00:00 14,7 4,4 22,3 9,1 7,9 9 5 14 8 SW 19 60 0,0
20.03.2017 11:00:00 13,1 4,3 16,8 9,1 7,9 4 2 12 6 S 20 60 0,0
20.03.2017 10:00:00 10,4 3,7 10,9 9,2 7,9 4 2 11 6 S 20 60 0,0
20.03.2017 09:00:00 - - - - - - - - - - - - -

tt = Température de l'air
td = dewpoint
tt 5cm = Température de l'air 5cm
tt -20cm = Température de l'air -20cm
tt -100cm = Température de l'air -100cm
ff = Vitesse du vent
fx = gusts
dd = Direction du vent
vv = visibility
sd = Ensoleillement
rr = Quantités de précipitations

stations d'obs. à proximité